Time;durP1;ratioP1;P1;durP2;ratioP2;P2;SDS_P1;SDS_P2;PMS_P1;PMS_P2;Temp;Humidity;BMP_temperature;BMP_pressure;BME280_temperature;BME280_humidity;BME280_pressure;Samples;Min_cycle;Max_cycle;Signal;HPM_P1;HPM_P2
2024/01/24 00:02:36;;;;;;;10.68;5.20;;;23.40;42.10;;;;;;6260754;27;80858;-60
2024/01/24 00:05:37;;;;;;;9.18;5.03;;;23.40;41.40;;;;;;6273350;27;80713;-59
2024/01/24 00:08:37;;;;;;;6.75;4.45;;;23.40;41.30;;;;;;6277348;27;80492;-59
2024/01/24 00:11:38;;;;;;;8.32;4.72;;;23.40;41.20;;;;;;6261627;27;84081;-59
2024/01/24 00:14:38;;;;;;;10.90;5.00;;;23.40;41.20;;;;;;6253045;27;80331;-59
2024/01/24 00:17:39;;;;;;;7.40;4.30;;;23.50;41.20;;;;;;6253682;27;81090;-58
2024/01/24 00:20:39;;;;;;;7.20;4.13;;;23.40;41.00;;;;;;6252916;27;82087;-59
2024/01/24 00:23:40;;;;;;;8.15;4.43;;;23.50;41.10;;;;;;6259408;27;80507;-59
2024/01/24 00:26:40;;;;;;;8.27;4.28;;;23.40;40.90;;;;;;6275447;27;81286;-59
2024/01/24 00:29:41;;;;;;;7.47;4.13;;;23.40;40.90;;;;;;6275521;27;80527;-59
2024/01/24 00:32:41;;;;;;;7.20;4.32;;;23.40;40.90;;;;;;6276379;27;80386;-59
2024/01/24 00:35:42;;;;;;;9.15;4.18;;;23.40;41.00;;;;;;6275815;27;80402;-59
2024/01/24 00:38:42;;;;;;;8.02;4.38;;;23.40;40.80;;;;;;6270297;27;80324;-52
2024/01/24 00:41:43;;;;;;;8.57;4.20;;;23.40;40.80;;;;;;6274615;27;83578;-53
2024/01/24 00:44:45;;;;;;;7.35;4.60;;;23.40;40.90;;;;;;6276966;27;80696;-51
2024/01/24 00:47:45;;;;;;;9.18;4.38;;;23.40;40.80;;;;;;6276588;27;80433;-52
2024/01/24 00:50:46;;;;;;;8.38;4.30;;;23.40;40.70;;;;;;6284754;27;83234;-48
2024/01/24 00:53:46;;;;;;;7.15;4.00;;;23.40;40.70;;;;;;6264735;27;82031;-49
2024/01/24 00:56:47;;;;;;;8.15;4.35;;;23.40;40.60;;;;;;6278540;27;80545;-59
2024/01/24 00:59:47;;;;;;;6.25;3.78;;;23.40;40.70;;;;;;6278793;27;81537;-60
2024/01/24 01:02:48;;;;;;;8.50;4.10;;;23.40;40.50;;;;;;6263787;27;81522;-60
2024/01/24 01:05:48;;;;;;;10.95;4.82;;;23.30;40.40;;;;;;6272929;27;80526;-59
2024/01/24 01:08:49;;;;;;;7.15;3.75;;;23.30;40.40;;;;;;6276489;27;80424;-62
2024/01/24 01:11:50;;;;;;;7.25;3.90;;;23.30;40.30;;;;;;6275866;27;80493;-58
2024/01/24 01:14:50;;;;;;;7.68;3.83;;;23.30;40.40;;;;;;6276693;27;80384;-71
2024/01/24 01:17:51;;;;;;;4.47;3.35;;;23.30;40.50;;;;;;6277596;27;80629;-71
2024/01/24 01:20:51;;;;;;;7.88;4.05;;;23.30;40.60;;;;;;6251955;27;81007;-71
2024/01/24 01:23:52;;;;;;;7.05;4.00;;;23.30;40.60;;;;;;6260486;27;80969;-70
2024/01/24 01:26:52;;;;;;;6.80;3.50;;;23.30;40.60;;;;;;6282450;27;80994;-71
2024/01/24 01:29:53;;;;;;;6.88;3.45;;;23.30;40.50;;;;;;6275758;27;81397;-71
2024/01/24 01:32:53;;;;;;;6.53;3.50;;;23.40;40.50;;;;;;6275304;27;80979;-69
2024/01/24 01:35:54;;;;;;;5.35;3.15;;;23.30;40.50;;;;;;6274558;27;80685;-69
2024/01/24 01:38:54;;;;;;;13.50;3.20;;;23.30;40.50;;;;;;6275638;27;80504;-69
2024/01/24 01:41:55;;;;;;;6.65;3.17;;;23.30;40.50;;;;;;6276653;27;81776;-68
2024/01/24 01:44:56;;;;;;;5.18;3.05;;;23.30;40.50;;;;;;6275502;27;80601;-68
2024/01/24 01:47:57;;;;;;;6.10;3.22;;;23.30;40.70;;;;;;6275331;27;81577;-68
2024/01/24 01:50:59;;;;;;;6.18;2.90;;;23.20;40.60;;;;;;6286306;27;82844;-61
2024/01/24 01:53:59;;;;;;;5.13;2.90;;;23.20;40.30;;;;;;6258344;27;80382;-61
2024/01/24 01:57:01;;;;;;;4.55;2.83;;;23.30;40.50;;;;;;6250727;27;81332;-61
2024/01/24 02:00:01;;;;;;;5.65;2.97;;;23.30;40.40;;;;;;6261088;27;80989;-61
2024/01/24 02:03:04;;;;;;;6.18;3.13;;;23.30;40.30;;;;;;6258369;27;81909;-60
2024/01/24 02:06:05;;;;;;;5.28;2.53;;;23.30;40.10;;;;;;6253426;27;80357;-61
2024/01/24 02:09:09;;;;;;;3.78;2.55;;;23.30;40.10;;;;;;6255094;27;80095;-57
2024/01/24 02:12:10;;;;;;;7.40;3.33;;;23.20;39.90;;;;;;6254000;27;80576;-56
2024/01/24 02:15:10;;;;;;;5.40;3.17;;;23.30;40.00;;;;;;6255074;27;81790;-61
2024/01/24 02:18:11;;;;;;;5.60;2.83;;;23.30;39.80;;;;;;6255248;27;80359;-58
2024/01/24 02:21:11;;;;;;;5.38;2.85;;;23.20;39.70;;;;;;6267176;27;80576;-61
2024/01/24 02:24:12;;;;;;;4.18;2.55;;;23.20;39.60;;;;;;6266367;27;82429;-58
2024/01/24 02:27:13;;;;;;;5.55;2.90;;;23.20;39.50;;;;;;6285778;27;80594;-49
2024/01/24 02:30:14;;;;;;;3.83;2.53;;;23.20;39.60;;;;;;6268362;27;81028;-57
2024/01/24 02:33:14;;;;;;;5.03;2.70;;;23.20;39.70;;;;;;6267211;27;80847;-52
2024/01/24 02:36:15;;;;;;;5.25;2.55;;;23.20;39.70;;;;;;6279378;27;81361;-49
2024/01/24 02:39:17;;;;;;;5.57;2.50;;;23.20;39.70;;;;;;6278239;27;82722;-50
2024/01/24 02:42:18;;;;;;;6.53;3.00;;;23.20;39.60;;;;;;6260828;27;83469;-49
2024/01/24 02:45:19;;;;;;;4.82;2.50;;;23.20;39.40;;;;;;6277172;27;81068;-51
2024/01/24 02:48:20;;;;;;;6.68;3.20;;;23.20;39.30;;;;;;6278139;27;82756;-49
2024/01/24 02:51:20;;;;;;;6.88;3.42;;;23.20;39.40;;;;;;6278252;27;80390;-54
2024/01/24 02:54:21;;;;;;;4.28;2.50;;;23.20;39.60;;;;;;6279196;27;80474;-50
2024/01/24 02:57:22;;;;;;;5.05;3.00;;;23.20;39.70;;;;;;6277996;27;80916;-53
2024/01/24 03:00:22;;;;;;;5.78;2.95;;;23.20;39.90;;;;;;6260387;27;87350;-51
2024/01/24 03:03:23;;;;;;;6.63;3.03;;;23.20;39.70;;;;;;6264341;27;80518;-53
2024/01/24 03:06:23;;;;;;;5.10;3.13;;;23.20;40.00;;;;;;6277753;27;81416;-55
2024/01/24 03:09:23;;;;;;;4.72;2.53;;;23.10;40.00;;;;;;6276636;27;80496;-57
2024/01/24 03:12:24;;;;;;;3.40;2.30;;;23.10;40.50;;;;;;6276507;27;80649;-59
2024/01/24 03:15:25;;;;;;;6.55;2.83;;;23.10;40.40;;;;;;6282416;27;82794;-59
2024/01/24 03:18:25;;;;;;;4.03;2.78;;;23.10;40.40;;;;;;6274652;27;80731;-59
2024/01/24 03:21:26;;;;;;;4.65;2.33;;;23.20;40.10;;;;;;6271418;27;80412;-58
2024/01/24 03:24:26;;;;;;;3.67;2.40;;;23.20;40.10;;;;;;6266511;27;80825;-70
2024/01/24 03:27:27;;;;;;;4.65;2.55;;;23.20;40.30;;;;;;6273139;27;84905;-70
2024/01/24 03:30:28;;;;;;;4.55;2.72;;;23.20;40.40;;;;;;6256330;27;83150;-70
2024/01/24 03:33:28;;;;;;;3.70;2.25;;;23.20;40.40;;;;;;6284603;27;80374;-68
2024/01/24 03:36:29;;;;;;;5.63;2.50;;;23.20;40.60;;;;;;6296710;27;80349;-67
2024/01/24 03:39:29;;;;;;;4.10;2.17;;;23.20;40.50;;;;;;6238496;28;81999;-68
2024/01/24 03:42:30;;;;;;;4.65;2.38;;;23.20;40.40;;;;;;6250307;28;80683;-59
2024/01/24 03:45:30;;;;;;;4.15;2.35;;;23.20;40.40;;;;;;6252626;28;82420;-60
2024/01/24 03:48:31;;;;;;;3.95;2.50;;;23.20;40.20;;;;;;6252764;28;82279;-59
2024/01/24 03:51:31;;;;;;;3.05;1.83;;;23.20;40.50;;;;;;6251642;28;81074;-60
2024/01/24 03:54:32;;;;;;;4.60;2.50;;;23.20;41.00;;;;;;6251197;28;80386;-61
2024/01/24 03:57:32;;;;;;;3.50;2.15;;;23.20;41.40;;;;;;6252117;28;81377;-60
2024/01/24 04:00:33;;;;;;;3.95;2.42;;;23.20;40.60;;;;;;6248921;28;80366;-60
2024/01/24 04:03:33;;;;;;;5.07;2.63;;;23.20;40.20;;;;;;6239174;28;80831;-62
2024/01/24 04:06:34;;;;;;;5.30;3.05;;;23.20;40.10;;;;;;6245261;28;80257;-61
2024/01/24 04:09:34;;;;;;;4.50;2.33;;;23.20;40.30;;;;;;6244696;28;80509;-60
2024/01/24 04:12:35;;;;;;;4.50;2.47;;;23.20;40.40;;;;;;6243448;28;83164;-60
2024/01/24 04:15:35;;;;;;;3.67;2.30;;;23.20;40.00;;;;;;6243985;28;80914;-61
2024/01/24 04:18:37;;;;;;;2.85;2.20;;;23.20;40.10;;;;;;6246377;28;80899;-49
2024/01/24 04:21:37;;;;;;;4.38;2.60;;;23.20;40.20;;;;;;6238840;28;81477;-54
2024/01/24 04:24:38;;;;;;;4.43;2.42;;;23.20;40.00;;;;;;6229223;28;80663;-55
2024/01/24 04:27:38;;;;;;;4.60;2.35;;;23.20;40.10;;;;;;6253516;27;80519;-50
2024/01/24 04:30:39;;;;;;;4.15;2.40;;;23.30;39.50;;;;;;6277886;27;80400;-52
2024/01/24 04:33:39;;;;;;;3.70;2.10;;;23.30;39.20;;;;;;6299152;27;80698;-47
2024/01/24 04:36:41;;;;;;;3.15;2.03;;;23.30;39.40;;;;;;6280226;27;80312;-50
2024/01/24 04:39:41;;;;;;;4.68;2.60;;;23.40;39.50;;;;;;6255797;27;80359;-49
2024/01/24 04:42:42;;;;;;;5.88;2.63;;;23.40;39.50;;;;;;6252336;27;80680;-51
2024/01/24 04:45:42;;;;;;;3.58;2.10;;;23.40;39.40;;;;;;6252249;27;81408;-52
2024/01/24 04:48:43;;;;;;;4.25;2.45;;;23.40;39.20;;;;;;6261500;27;80614;-49
2024/01/24 04:51:43;;;;;;;5.25;1.90;;;23.50;38.90;;;;;;6251666;27;80475;-51
2024/01/24 04:54:44;;;;;;;3.83;2.20;;;23.50;38.90;;;;;;6277202;27;81437;-52
2024/01/24 04:57:45;;;;;;;4.38;2.50;;;23.50;39.00;;;;;;6286532;27;80922;-51
2024/01/24 05:00:45;;;;;;;4.90;2.20;;;23.60;39.10;;;;;;6281745;27;80396;-53
2024/01/24 05:03:46;;;;;;;4.03;2.45;;;23.50;38.90;;;;;;6276731;27;81294;-56
2024/01/24 05:06:46;;;;;;;3.63;2.25;;;23.60;38.90;;;;;;6276351;27;81047;-51
2024/01/24 05:09:47;;;;;;;4.10;1.85;;;23.60;38.90;;;;;;6281672;27;80479;-48
2024/01/24 05:12:47;;;;;;;3.47;2.17;;;23.60;39.10;;;;;;6261389;27;84102;-50
2024/01/24 05:15:49;;;;;;;5.43;2.35;;;23.60;39.40;;;;;;6269500;27;80720;-50
2024/01/24 05:18:50;;;;;;;3.90;2.40;;;23.60;39.50;;;;;;6251195;27;81014;-52
2024/01/24 05:21:50;;;;;;;5.28;2.00;;;23.70;39.20;;;;;;6254109;27;81295;-51
2024/01/24 05:24:51;;;;;;;4.18;2.05;;;23.70;39.10;;;;;;6250497;27;80239;-49
2024/01/24 05:27:52;;;;;;;4.60;1.95;;;23.70;39.20;;;;;;6260688;27;83669;-49
2024/01/24 05:30:52;;;;;;;5.30;2.10;;;23.70;39.90;;;;;;6270292;27;81306;-57
2024/01/24 05:33:55;;;;;;;11.60;2.05;;;23.70;40.30;;;;;;6268891;27;80930;-58
2024/01/24 05:36:55;;;;;;;3.47;2.00;;;23.80;40.50;;;;;;6273512;27;80472;-57
2024/01/24 05:39:56;;;;;;;4.10;2.05;;;23.80;40.40;;;;;;6272402;27;80538;-54
2024/01/24 05:42:57;;;;;;;6.47;2.17;;;23.70;39.90;;;;;;6273184;27;80956;-56
2024/01/24 05:45:57;;;;;;;11.75;2.20;;;23.80;39.80;;;;;;6288971;27;80667;-58
2024/01/24 05:49:00;;;;;;;6.75;2.15;;;23.80;40.20;;;;;;6296338;27;80514;-57
2024/01/24 05:52:00;;;;;;;7.63;2.50;;;23.80;40.20;;;;;;6293750;27;80437;-56
2024/01/24 05:55:01;;;;;;;5.18;2.40;;;23.80;40.00;;;;;;6292439;27;80933;-56
2024/01/24 05:58:02;;;;;;;4.45;2.20;;;23.80;40.00;;;;;;6296326;27;80571;-57
2024/01/24 06:01:02;;;;;;;4.28;2.28;;;23.80;39.70;;;;;;6295059;27;81757;-57
2024/01/24 06:04:02;;;;;;;4.60;2.20;;;23.80;39.80;;;;;;6247147;27;84407;-58
2024/01/24 06:07:03;;;;;;;4.95;2.40;;;23.70;39.90;;;;;;6270094;27;81281;-56
2024/01/24 06:10:04;;;;;;;3.97;2.20;;;23.70;39.90;;;;;;6285251;27;81148;-60
2024/01/24 06:13:04;;;;;;;4.20;1.90;;;23.70;39.70;;;;;;6300292;27;82085;-59
2024/01/24 06:16:05;;;;;;;6.63;2.17;;;23.60;39.50;;;;;;6299136;27;81103;-59
2024/01/24 06:19:05;;;;;;;3.83;2.00;;;23.60;39.40;;;;;;6266159;27;80734;-58
2024/01/24 06:22:06;;;;;;;3.45;2.08;;;23.60;39.40;;;;;;6297372;27;80295;-59
2024/01/24 06:25:07;;;;;;;3.22;2.10;;;23.60;39.50;;;;;;6295261;27;80542;-59
2024/01/24 06:28:07;;;;;;;4.60;2.03;;;23.50;39.30;;;;;;6278394;27;80520;-56
2024/01/24 06:31:08;;;;;;;5.97;2.78;;;23.50;39.00;;;;;;6303860;27;82093;-56
2024/01/24 06:34:08;;;;;;;4.95;2.20;;;23.50;39.10;;;;;;6296368;27;80322;-58
2024/01/24 06:37:09;;;;;;;5.55;2.25;;;23.50;39.10;;;;;;6295528;27;80454;-57
2024/01/24 06:40:10;;;;;;;7.50;2.28;;;23.50;39.20;;;;;;6300542;27;80217;-56
2024/01/24 06:43:14;;;;;;;6.65;2.55;;;23.50;39.60;;;;;;6298471;27;80319;-57
2024/01/24 06:46:15;;;;;;;3.78;2.25;;;23.50;39.70;;;;;;6290804;27;80681;-55
2024/01/24 06:49:15;;;;;;;12.80;2.42;;;23.50;39.40;;;;;;6313549;27;80798;-57
2024/01/24 06:52:16;;;;;;;7.38;2.42;;;23.40;40.10;;;;;;6298576;27;80272;-56
2024/01/24 06:55:17;;;;;;;4.68;2.30;;;23.40;40.00;;;;;;6297922;27;80515;-56
2024/01/24 06:58:17;;;;;;;6.88;2.92;;;23.40;40.10;;;;;;6300022;27;87515;-56
2024/01/24 07:01:18;;;;;;;6.75;2.38;;;23.40;40.00;;;;;;6265586;27;80648;-56
2024/01/24 07:04:19;;;;;;;6.35;2.67;;;23.40;39.90;;;;;;6278935;27;81141;-58
2024/01/24 07:07:20;;;;;;;4.43;2.42;;;23.40;40.00;;;;;;6277910;27;81471;-58
2024/01/24 07:10:21;;;;;;;4.05;1.67;;;23.40;39.90;;;;;;6277678;27;80696;-58
2024/01/24 07:13:22;;;;;;;4.95;2.00;;;23.30;39.60;;;;;;6279120;27;80654;-58
2024/01/24 07:16:23;;;;;;;5.18;2.20;;;23.30;39.80;;;;;;6285023;27;80698;-59
2024/01/24 07:19:23;;;;;;;5.13;2.30;;;23.30;39.50;;;;;;6283845;27;83429;-58
2024/01/24 07:22:24;;;;;;;5.85;2.30;;;23.30;39.40;;;;;;6278279;27;81187;-58
2024/01/24 07:25:25;;;;;;;5.15;2.83;;;23.30;39.50;;;;;;6299526;27;80432;-59
2024/01/24 07:28:29;;;;;;;6.15;2.40;;;23.30;39.50;;;;;;6258414;27;84004;-59
2024/01/24 07:31:29;;;;;;;5.18;2.38;;;23.30;39.30;;;;;;6260480;27;80312;-57
2024/01/24 07:34:30;;;;;;;5.22;2.50;;;23.30;39.30;;;;;;6275894;27;80853;-58
2024/01/24 07:37:30;;;;;;;4.13;2.30;;;23.30;39.20;;;;;;6269013;27;80435;-58
2024/01/24 07:40:31;;;;;;;7.57;2.20;;;23.30;39.30;;;;;;6260537;27;80936;-54
2024/01/24 07:43:32;;;;;;;6.55;2.58;;;23.20;39.10;;;;;;6269335;27;80661;-54
2024/01/24 07:46:33;;;;;;;5.47;2.35;;;23.20;39.00;;;;;;6281780;27;81322;-50
2024/01/24 07:49:34;;;;;;;5.55;2.80;;;23.20;38.90;;;;;;6270593;27;80447;-52
2024/01/24 07:52:34;;;;;;;6.18;2.45;;;23.20;39.70;;;;;;6281402;27;81430;-58
2024/01/24 07:55:35;;;;;;;6.18;2.45;;;23.20;39.00;;;;;;6267615;27;80678;-51
2024/01/24 07:58:35;;;;;;;4.55;2.10;;;23.20;39.10;;;;;;6271293;27;81444;-56
2024/01/24 08:01:36;;;;;;;4.90;2.28;;;23.20;39.20;;;;;;6266399;27;81248;-58
2024/01/24 08:04:36;;;;;;;3.92;2.30;;;23.20;39.30;;;;;;6271873;27;80686;-57
2024/01/24 08:07:39;;;;;;;5.40;2.40;;;23.20;39.30;;;;;;6238373;27;81394;-57
2024/01/24 08:10:40;;;;;;;4.15;2.00;;;23.20;39.50;;;;;;6263873;27;80524;-57
2024/01/24 08:13:41;;;;;;;5.03;2.30;;;23.20;39.60;;;;;;6246413;27;82555;-57
2024/01/24 08:16:41;;;;;;;3.40;2.42;;;23.20;39.60;;;;;;6260855;27;81510;-68
2024/01/24 08:19:42;;;;;;;4.97;1.92;;;23.20;39.80;;;;;;6257062;27;80659;-67
2024/01/24 08:22:42;;;;;;;5.82;2.40;;;23.20;39.90;;;;;;6269559;27;86651;-68
2024/01/24 08:25:43;;;;;;;3.90;1.90;;;23.20;40.00;;;;;;6235663;27;82250;-67
2024/01/24 08:28:43;;;;;;;4.03;2.20;;;23.20;40.00;;;;;;6297731;27;80456;-68
2024/01/24 08:31:44;;;;;;;4.32;2.25;;;23.20;40.00;;;;;;6281056;27;81484;-67
2024/01/24 08:34:44;;;;;;;3.45;1.85;;;23.20;40.10;;;;;;6300187;27;80443;-69
2024/01/24 08:37:45;;;;;;;2.55;1.25;;;23.20;40.30;;;;;;6295150;27;80894;-66
2024/01/24 08:40:45;;;;;;;4.88;2.50;;;23.20;40.10;;;;;;6287044;27;81813;-68
2024/01/24 08:43:46;;;;;;;3.45;1.77;;;23.20;40.60;;;;;;6300036;27;80638;-67
2024/01/24 08:46:48;;;;;;;2.35;1.75;;;23.20;40.00;;;;;;6291654;27;82778;-67
2024/01/24 08:49:50;;;;;;;2.38;1.40;;;23.30;39.90;;;;;;6286668;27;80759;-68
2024/01/24 08:52:51;;;;;;;3.63;1.70;;;23.30;39.70;;;;;;6276621;27;80702;-68
2024/01/24 08:55:52;;;;;;;3.72;1.40;;;23.30;39.60;;;;;;6285392;27;81145;-63
2024/01/24 08:58:52;;;;;;;2.05;1.10;;;23.40;39.40;;;;;;6287520;27;82620;-61
2024/01/24 09:01:55;;;;;;;2.17;1.45;;;23.40;39.30;;;;;;6280365;27;80460;-61
2024/01/24 09:04:55;;;;;;;1.23;1.10;;;23.40;39.30;;;;;;6293125;27;80522;-60
2024/01/24 09:07:56;;;;;;;1.75;1.30;;;23.40;39.20;;;;;;6299626;27;80779;-61
2024/01/24 09:10:56;;;;;;;2.75;1.33;;;23.40;39.10;;;;;;6299141;27;80998;-61
2024/01/24 09:13:57;;;;;;;1.52;1.00;;;23.50;39.20;;;;;;6281358;27;81342;-66
2024/01/24 09:16:57;;;;;;;2.05;1.17;;;23.40;39.00;;;;;;6278686;27;85811;-68
2024/01/24 09:19:58;;;;;;;1.77;1.30;;;23.50;39.10;;;;;;6292900;27;82365;-66
2024/01/24 09:22:58;;;;;;;1.17;0.88;;;23.50;39.10;;;;;;6292475;27;81001;-68
2024/01/24 09:25:59;;;;;;;1.38;0.90;;;23.50;39.00;;;;;;6298219;27;80372;-67
2024/01/24 09:29:00;;;;;;;1.35;1.10;;;23.50;39.00;;;;;;6276313;27;80399;-68
2024/01/24 09:32:00;;;;;;;2.58;1.08;;;23.50;39.00;;;;;;6290200;27;80129;-67
2024/01/24 09:35:00;;;;;;;1.80;1.13;;;23.60;39.20;;;;;;6297490;27;80471;-67
2024/01/24 09:38:01;;;;;;;3.22;1.38;;;23.60;39.00;;;;;;6294008;27;81286;-67
2024/01/24 09:41:01;;;;;;;3.75;1.00;;;23.60;39.00;;;;;;6291607;27;80282;-67
2024/01/24 09:44:03;;;;;;;1.13;0.70;;;23.60;38.90;;;;;;6293348;27;80448;-66
2024/01/24 09:47:03;;;;;;;1.30;0.88;;;23.60;38.90;;;;;;6295019;27;80585;-67
2024/01/24 09:50:04;;;;;;;1.13;1.02;;;23.60;38.90;;;;;;6280911;27;80679;-57
2024/01/24 09:53:06;;;;;;;0.85;0.85;;;23.60;39.00;;;;;;6288032;27;80655;-58
2024/01/24 09:56:06;;;;;;;1.35;0.98;;;23.60;39.00;;;;;;6292269;27;80496;-57
2024/01/24 09:59:07;;;;;;;1.20;0.90;;;23.60;39.00;;;;;;6293635;27;80522;-58
2024/01/24 10:02:07;;;;;;;1.98;0.93;;;23.60;39.00;;;;;;6279831;27;82038;-58
2024/01/24 10:05:08;;;;;;;0.88;0.70;;;23.60;39.00;;;;;;6299576;27;80195;-51
2024/01/24 10:08:10;;;;;;;0.90;0.73;;;23.60;39.20;;;;;;6295731;27;80648;-62
2024/01/24 10:11:10;;;;;;;2.25;1.00;;;23.60;39.20;;;;;;6260808;27;82735;-63
2024/01/24 10:14:11;;;;;;;2.50;1.00;;;23.70;39.20;;;;;;6278056;27;81132;-60
2024/01/24 10:17:11;;;;;;;1.50;0.90;;;23.60;39.20;;;;;;6292455;27;80956;-63
2024/01/24 10:20:12;;;;;;;0.88;0.80;;;23.60;39.30;;;;;;6273957;27;80514;-64
2024/01/24 10:23:12;;;;;;;2.13;0.98;;;23.70;39.40;;;;;;6274942;27;86206;-64
2024/01/24 10:26:13;;;;;;;1.38;0.90;;;23.60;39.50;;;;;;6272816;27;80302;-53
2024/01/24 10:29:14;;;;;;;1.27;1.00;;;23.60;39.50;;;;;;6292249;27;82366;-52
2024/01/24 10:32:14;;;;;;;0.80;0.70;;;23.70;39.60;;;;;;6305760;27;81717;-52
2024/01/24 10:35:15;;;;;;;1.17;0.80;;;23.70;39.70;;;;;;6303587;27;80401;-52
2024/01/24 10:38:16;;;;;;;0.75;0.60;;;23.70;39.70;;;;;;6304305;27;80958;-49
2024/01/24 10:41:16;;;;;;;1.20;0.73;;;23.60;39.70;;;;;;6304151;27;80224;-53
2024/01/24 10:44:17;;;;;;;1.10;0.77;;;23.60;39.70;;;;;;6303619;27;80469;-52
2024/01/24 10:47:17;;;;;;;1.08;0.80;;;23.70;39.80;;;;;;6303396;27;80648;-57
2024/01/24 10:50:18;;;;;;;1.70;0.98;;;23.70;39.90;;;;;;6304519;27;81336;-56
2024/01/24 10:53:18;;;;;;;1.15;1.00;;;23.60;39.90;;;;;;6305457;27;80664;-57
2024/01/24 10:56:19;;;;;;;0.85;0.82;;;23.60;40.00;;;;;;6303932;27;80674;-58
2024/01/24 10:59:19;;;;;;;1.00;0.90;;;23.70;40.00;;;;;;6281866;27;80229;-57
2024/01/24 11:02:20;;;;;;;2.05;0.95;;;23.70;40.10;;;;;;6288773;27;80692;-50
2024/01/24 11:05:20;;;;;;;1.45;0.75;;;23.70;40.00;;;;;;6292802;27;80948;-49
2024/01/24 11:08:21;;;;;;;0.80;0.80;;;23.60;40.10;;;;;;6299380;27;80724;-53
2024/01/24 11:11:22;;;;;;;1.33;1.00;;;23.60;40.40;;;;;;6296586;27;80719;-51
2024/01/24 11:14:26;;;;;;;2.58;0.60;;;23.60;40.10;;;;;;6302977;27;80417;-50
2024/01/24 11:17:26;;;;;;;3.13;0.70;;;23.60;40.10;;;;;;6297372;27;80354;-50
2024/01/24 11:20:27;;;;;;;0.82;0.80;;;23.60;40.10;;;;;;6299236;27;82180;-63
2024/01/24 11:23:27;;;;;;;0.60;0.57;;;23.60;40.20;;;;;;6288458;27;85032;-64
2024/01/24 11:26:28;;;;;;;0.88;0.70;;;23.60;40.40;;;;;;6289999;27;80556;-63
2024/01/24 11:29:28;;;;;;;1.40;0.77;;;23.60;40.10;;;;;;6290366;27;80635;-64
2024/01/24 11:32:29;;;;;;;0.82;0.60;;;23.60;40.20;;;;;;6271104;27;81435;-65
2024/01/24 11:35:29;;;;;;;0.80;0.50;;;23.60;40.30;;;;;;6284517;27;83175;-65
2024/01/24 11:38:30;;;;;;;1.58;0.70;;;23.60;40.40;;;;;;6299255;27;80284;-61
2024/01/24 11:41:31;;;;;;;3.15;0.63;;;23.50;40.70;;;;;;6298753;27;81329;-62
2024/01/24 11:44:31;;;;;;;0.80;0.60;;;23.50;40.90;;;;;;6280108;27;80664;-61
2024/01/24 11:47:32;;;;;;;1.08;0.85;;;23.50;41.00;;;;;;6293026;27;80822;-61
2024/01/24 11:50:32;;;;;;;2.30;0.90;;;23.40;41.00;;;;;;6298324;27;86478;-62
2024/01/24 11:53:33;;;;;;;1.67;0.90;;;23.30;41.10;;;;;;6290063;27;80992;-61
2024/01/24 11:56:35;;;;;;;0.80;0.70;;;23.20;41.10;;;;;;6293785;27;80570;-62
2024/01/24 11:59:36;;;;;;;2.75;1.00;;;23.10;41.10;;;;;;6302578;27;81321;-64
2024/01/24 12:02:36;;;;;;;3.35;0.90;;;22.90;41.20;;;;;;6290997;27;80418;-63
2024/01/24 12:05:37;;;;;;;2.13;1.13;;;22.90;41.20;;;;;;6279369;27;80885;-63
2024/01/24 12:08:37;;;;;;;1.27;1.00;;;22.80;41.40;;;;;;6277088;27;81695;-63
2024/01/24 12:11:38;;;;;;;1.63;0.80;;;22.80;41.60;;;;;;6302448;27;80302;-64
2024/01/24 12:14:38;;;;;;;2.10;0.90;;;22.70;41.60;;;;;;6302895;27;80581;-65
2024/01/24 12:17:39;;;;;;;1.20;0.90;;;22.70;41.60;;;;;;6308136;27;82548;-57
2024/01/24 12:20:40;;;;;;;1.90;1.10;;;22.70;41.70;;;;;;6299277;27;82099;-59
2024/01/24 12:23:42;;;;;;;2.00;1.08;;;22.70;41.70;;;;;;6266052;27;81171;-60
2024/01/24 12:26:42;;;;;;;1.00;0.70;;;22.70;41.60;;;;;;6272821;27;81124;-54
2024/01/24 12:29:43;;;;;;;2.05;1.23;;;22.70;41.60;;;;;;6273014;27;80186;-56
2024/01/24 12:32:43;;;;;;;1.73;1.20;;;22.70;41.70;;;;;;6264603;27;80527;-54
2024/01/24 12:35:44;;;;;;;2.45;1.15;;;22.60;41.70;;;;;;6278235;27;80122;-57
2024/01/24 12:38:44;;;;;;;1.80;1.02;;;22.50;41.60;;;;;;6275963;27;83073;-58
2024/01/24 12:41:45;;;;;;;1.63;1.00;;;22.50;41.70;;;;;;6277594;27;81338;-59
2024/01/24 12:44:45;;;;;;;2.10;1.20;;;22.40;41.80;;;;;;6278100;27;81207;-59
2024/01/24 12:47:46;;;;;;;1.60;1.10;;;22.50;41.90;;;;;;6276425;27;80550;-58
2024/01/24 12:50:46;;;;;;;1.45;1.10;;;22.50;42.10;;;;;;6267428;27;81431;-55
2024/01/24 12:53:47;;;;;;;3.33;1.40;;;22.40;41.90;;;;;;6267595;27;83305;-56
2024/01/24 12:56:48;;;;;;;5.13;1.45;;;22.40;41.90;;;;;;6276421;27;81050;-53
2024/01/24 12:59:49;;;;;;;1.73;1.13;;;22.40;42.00;;;;;;6273719;27;80690;-58
2024/01/24 13:02:50;;;;;;;1.58;1.27;;;22.50;42.20;;;;;;6260834;27;81720;-57
2024/01/24 13:05:50;;;;;;;1.88;1.10;;;22.60;42.10;;;;;;6256136;27;80789;-50
2024/01/24 13:08:51;;;;;;;2.53;1.27;;;22.60;42.30;;;;;;6252298;27;80209;-51
2024/01/24 13:11:53;;;;;;;5.72;1.23;;;22.70;42.10;;;;;;6253015;27;83556;-65
2024/01/24 13:14:53;;;;;;;3.58;1.30;;;23.10;41.90;;;;;;6251807;27;82584;-65
2024/01/24 13:17:54;;;;;;;2.45;1.45;;;23.20;41.80;;;;;;6266364;27;81053;-65
2024/01/24 13:20:55;;;;;;;2.70;1.27;;;23.20;41.70;;;;;;6264515;27;80491;-66
2024/01/24 13:24:01;;;;;;;2.00;1.27;;;23.30;41.70;;;;;;6261370;27;80716;-66
2024/01/24 13:27:02;;;;;;;2.47;1.30;;;23.20;41.80;;;;;;6272490;27;80947;-66
2024/01/24 13:30:02;;;;;;;1.48;1.10;;;23.20;41.70;;;;;;6268364;27;81357;-65
2024/01/24 13:33:03;;;;;;;2.03;1.30;;;23.20;41.80;;;;;;6271074;27;84705;-63
2024/01/24 13:36:03;;;;;;;5.13;1.40;;;23.20;41.80;;;;;;6266974;27;81739;-64
2024/01/24 13:39:08;;;;;;;2.25;1.30;;;23.30;41.80;;;;;;6273712;27;80757;-62
2024/01/24 13:42:08;;;;;;;1.58;1.05;;;23.50;41.60;;;;;;6255715;27;82233;-64
2024/01/24 13:45:09;;;;;;;2.45;1.33;;;23.70;41.40;;;;;;6257881;27;80571;-62
2024/01/24 13:48:10;;;;;;;1.92;1.38;;;23.70;41.20;;;;;;6254785;27;80516;-62
2024/01/24 13:51:10;;;;;;;2.90;1.52;;;23.70;41.10;;;;;;6258529;27;80416;-63
2024/01/24 13:54:11;;;;;;;3.42;1.00;;;23.70;41.20;;;;;;6259074;27;80842;-63
2024/01/24 13:57:11;;;;;;;3.40;1.42;;;23.70;41.10;;;;;;6260347;27;80606;-62
2024/01/24 14:00:13;;;;;;;2.40;1.50;;;23.60;41.10;;;;;;6259056;27;80822;-65
2024/01/24 14:03:14;;;;;;;2.13;1.40;;;23.60;41.40;;;;;;6261704;27;80652;-63
2024/01/24 14:06:16;;;;;;;5.88;1.70;;;23.60;41.50;;;;;;6276693;27;81167;-54
2024/01/24 14:09:17;;;;;;;8.30;1.90;;;23.50;41.80;;;;;;6261393;27;80337;-53
2024/01/24 14:12:17;;;;;;;2.90;1.40;;;23.50;41.90;;;;;;6262230;27;80479;-54
2024/01/24 14:15:18;;;;;;;2.67;1.30;;;23.50;42.00;;;;;;6278011;27;80493;-53
2024/01/24 14:18:18;;;;;;;4.78;1.50;;;23.50;42.30;;;;;;6272381;27;80658;-47
2024/01/24 14:21:19;;;;;;;6.38;1.63;;;23.50;42.50;;;;;;6263253;27;80394;-49
2024/01/24 14:24:19;;;;;;;8.43;2.10;;;23.50;42.20;;;;;;6268931;27;80476;-53
2024/01/24 14:27:24;;;;;;;7.57;2.25;;;23.50;42.40;;;;;;6278936;27;81288;-50
2024/01/24 14:30:25;;;;;;;6.10;1.40;;;23.50;42.40;;;;;;6278326;27;80631;-50
2024/01/24 14:33:25;;;;;;;6.85;1.65;;;23.50;42.30;;;;;;6278809;27;80496;-54
2024/01/24 14:36:26;;;;;;;2.42;1.50;;;23.50;42.30;;;;;;6276394;27;80439;-50
2024/01/24 14:39:26;;;;;;;2.35;1.38;;;23.60;42.90;;;;;;6276277;27;80445;-51
2024/01/24 14:42:27;;;;;;;4.25;1.55;;;23.60;42.80;;;;;;6273518;27;80620;-53
2024/01/24 14:45:27;;;;;;;2.72;1.58;;;23.60;42.70;;;;;;6272953;27;79999;-50
2024/01/24 14:48:27;;;;;;;2.58;1.50;;;23.60;42.80;;;;;;6271223;27;83575;-51
2024/01/24 14:51:28;;;;;;;2.47;1.10;;;23.60;43.00;;;;;;6273794;27;80452;-49
2024/01/24 14:54:28;;;;;;;5.05;1.52;;;23.70;43.40;;;;;;6264619;27;80234;-51
2024/01/24 14:57:29;;;;;;;2.35;1.58;;;23.70;43.60;;;;;;6269972;27;80427;-49
2024/01/24 15:00:30;;;;;;;5.60;1.60;;;23.70;43.80;;;;;;6277301;27;81511;-56
2024/01/24 15:03:31;;;;;;;4.68;1.48;;;23.70;44.10;;;;;;6257660;27;82537;-56
2024/01/24 15:06:32;;;;;;;6.90;1.60;;;23.70;43.90;;;;;;6266247;27;80741;-57
2024/01/24 15:09:32;;;;;;;7.13;1.48;;;23.70;44.10;;;;;;6268463;27;80863;-55
2024/01/24 15:12:33;;;;;;;3.22;1.25;;;23.70;44.20;;;;;;6257040;27;80956;-53
2024/01/24 15:15:34;;;;;;;3.15;1.20;;;23.70;44.40;;;;;;6259469;27;80748;-54
2024/01/24 15:18:34;;;;;;;4.35;1.40;;;23.80;44.30;;;;;;6261274;27;80518;-58
2024/01/24 15:21:35;;;;;;;6.82;1.35;;;23.80;44.70;;;;;;6261159;27;81296;-53
2024/01/24 15:24:35;;;;;;;6.53;1.70;;;23.80;44.40;;;;;;6251258;27;81575;-57
2024/01/24 15:27:36;;;;;;;3.00;1.35;;;23.80;44.40;;;;;;6265999;27;80423;-53
2024/01/24 15:30:37;;;;;;;7.70;1.40;;;23.80;44.40;;;;;;6275729;27;81360;-54
2024/01/24 15:33:37;;;;;;;2.58;1.27;;;23.80;44.20;;;;;;6276792;27;80725;-54
2024/01/24 15:36:38;;;;;;;4.30;1.55;;;23.80;44.20;;;;;;6275551;27;80725;-51
2024/01/24 15:39:39;;;;;;;4.00;1.58;;;23.80;44.10;;;;;;6270264;27;80764;-69